Time;durP1;ratioP1;P1;durP2;ratioP2;P2;SDS_P1;SDS_P2;PMS_P1;PMS_P2;Temp;Humidity;BMP_temperature;BMP_pressure;BME280_temperature;BME280_humidity;BME280_pressure;Samples;Min_cycle;Max_cycle;Signal;HPM_P1;HPM_P2
2022/10/30 00:01:31;;;;;;;0.37;0.37;;;;;;;;;;1890651;74;26241;-57
2022/10/30 00:03:58;;;;;;;0.23;0.23;;;;;;;;;;1891884;74;26256;-55
2022/10/30 00:06:26;;;;;;;0.23;0.23;;;;;;;;;;1898613;74;26244;-56
2022/10/30 00:08:53;;;;;;;0.20;0.20;;;;;;;;;;1885991;74;26282;-56
2022/10/30 00:11:20;;;;;;;0.20;0.20;;;;;;;;;;1885771;74;26233;-57
2022/10/30 00:13:47;;;;;;;0.30;0.30;;;;;;;;;;1883294;74;26309;-54
2022/10/30 00:16:15;;;;;;;0.20;0.20;;;;;;;;;;1893755;74;26248;-57
2022/10/30 00:18:42;;;;;;;0.10;0.10;;;;;;;;;;1883500;74;26252;-51
2022/10/30 00:21:11;;;;;;;0.20;0.20;;;;;;;;;;1872408;74;26281;-54
2022/10/30 00:23:39;;;;;;;0.30;0.30;;;;;;;;;;1857083;75;26705;-58
2022/10/30 00:26:07;;;;;;;0.20;0.20;;;;;;;;;;1868323;75;26350;-54
2022/10/30 00:28:35;;;;;;;0.20;0.20;;;;;;;;;;1864849;75;26253;-53
2022/10/30 00:31:02;;;;;;;0.30;0.30;;;;;;;;;;1860697;75;26243;-54
2022/10/30 00:33:30;;;;;;;0.20;0.20;;;;;;;;;;1860290;75;26326;-55
2022/10/30 00:35:57;;;;;;;0.20;0.20;;;;;;;;;;1870862;75;26183;-54
2022/10/30 00:38:24;;;;;;;0.20;0.20;;;;;;;;;;1874210;75;27531;-53
2022/10/30 00:40:52;;;;;;;0.20;0.20;;;;;;;;;;1872812;75;27348;-53
2022/10/30 00:43:29;;;;;;;0.28;0.28;;;;;;;;;;1871393;75;26300;-52
2022/10/30 00:45:58;;;;;;;0.17;0.17;;;;;;;;;;1858552;75;25693;-55
2022/10/30 00:48:26;;;;;;;0.15;0.15;;;;;;;;;;1861409;75;26815;-54
2022/10/30 00:50:54;;;;;;;0.20;0.20;;;;;;;;;;1881193;75;26331;-56
2022/10/30 00:53:23;;;;;;;0.30;0.30;;;;;;;;;;1867037;75;26678;-55
2022/10/30 00:55:51;;;;;;;0.20;0.20;;;;;;;;;;1867030;75;25694;-53
2022/10/30 00:58:20;;;;;;;0.20;0.20;;;;;;;;;;1872972;75;25704;-54
2022/10/30 01:00:49;;;;;;;0.17;0.17;;;;;;;;;;1865515;75;26318;-54
2022/10/30 01:03:16;;;;;;;0.20;0.20;;;;;;;;;;1871501;75;25669;-50
2022/10/30 01:05:45;;;;;;;0.20;0.20;;;;;;;;;;1868973;75;26247;-54
2022/10/30 01:08:12;;;;;;;0.05;0.05;;;;;;;;;;1869394;75;26261;-56
2022/10/30 01:10:40;;;;;;;0.15;0.15;;;;;;;;;;1872729;75;26256;-53
2022/10/30 01:13:07;;;;;;;0.17;0.17;;;;;;;;;;1875250;75;26261;-55
2022/10/30 01:15:36;;;;;;;0.20;0.20;;;;;;;;;;1873145;75;26252;-55
2022/10/30 01:18:08;;;;;;;0.20;0.20;;;;;;;;;;1871380;75;26217;-55
2022/10/30 01:20:48;;;;;;;0.10;0.10;;;;;;;;;;1874294;74;26237;-52
2022/10/30 01:23:23;;;;;;;0.20;0.20;;;;;;;;;;1895057;74;26365;-51
2022/10/30 01:25:55;;;;;;;0.13;0.13;;;;;;;;;;1888546;74;26724;-50
2022/10/30 01:28:41;;;;;;;0.20;0.20;;;;;;;;;;1893090;74;26240;-48
2022/10/30 01:31:25;;;;;;;0.10;0.10;;;;;;;;;;1889116;74;26264;-48
2022/10/30 01:33:54;;;;;;;0.28;0.28;;;;;;;;;;1788351;78;26797;-46
2022/10/30 01:36:34;;;;;;;0.20;0.20;;;;;;;;;;1801724;74;27463;-50
2022/10/30 01:39:12;;;;;;;0.20;0.20;;;;;;;;;;1895772;74;26260;-49
2022/10/30 01:41:39;;;;;;;0.30;0.10;;;;;;;;;;1893336;74;26274;-54
2022/10/30 01:44:08;;;;;;;0.20;0.20;;;;;;;;;;1880532;74;26248;-50
2022/10/30 01:46:43;;;;;;;0.20;0.20;;;;;;;;;;1876401;74;26295;-50
2022/10/30 01:49:21;;;;;;;0.20;0.20;;;;;;;;;;1901642;74;26237;-50
2022/10/30 01:51:52;;;;;;;0.15;0.15;;;;;;;;;;1882318;74;26248;-51
2022/10/30 01:54:21;;;;;;;0.20;0.20;;;;;;;;;;1891183;74;26346;-46
2022/10/30 01:56:50;;;;;;;0.10;0.10;;;;;;;;;;1891803;74;26232;-50
2022/10/30 01:59:25;;;;;;;0.20;0.20;;;;;;;;;;1888156;74;26306;-47
2022/10/30 02:01:52;;;;;;;0.20;0.20;;;;;;;;;;1875649;74;26244;-48
2022/10/30 02:04:19;;;;;;;0.10;0.10;;;;;;;;;;1891184;75;26749;-49
2022/10/30 02:06:47;;;;;;;0.10;0.10;;;;;;;;;;1890591;74;26861;-56
2022/10/30 02:09:15;;;;;;;0.10;0.10;;;;;;;;;;1889785;74;26373;-51
2022/10/30 02:11:44;;;;;;;0.20;0.20;;;;;;;;;;1893033;74;26799;-49
2022/10/30 02:14:12;;;;;;;0.10;0.10;;;;;;;;;;1877911;74;26258;-47
2022/10/30 02:16:41;;;;;;;1.07;0.20;;;;;;;;;;1866573;74;26320;-54
2022/10/30 02:19:08;;;;;;;0.20;0.20;;;;;;;;;;1887507;74;26402;-53
2022/10/30 02:21:35;;;;;;;0.17;0.17;;;;;;;;;;1885299;74;26334;-47
2022/10/30 02:24:03;;;;;;;0.20;0.20;;;;;;;;;;1891537;74;26306;-48
2022/10/30 02:26:30;;;;;;;0.10;0.10;;;;;;;;;;1890144;74;27455;-48
2022/10/30 02:28:57;;;;;;;0.15;0.15;;;;;;;;;;1889714;74;27331;-54
2022/10/30 02:31:24;;;;;;;0.20;0.20;;;;;;;;;;1890010;74;26255;-48
2022/10/30 02:33:52;;;;;;;0.10;0.10;;;;;;;;;;1886182;74;26249;-49
2022/10/30 02:36:19;;;;;;;0.20;0.20;;;;;;;;;;1889458;74;26241;-46
2022/10/30 02:38:46;;;;;;;0.10;0.10;;;;;;;;;;1878759;74;26654;-54
2022/10/30 02:41:14;;;;;;;0.10;0.10;;;;;;;;;;1880883;74;26337;-47
2022/10/30 02:43:41;;;;;;;0.20;0.20;;;;;;;;;;1891062;74;26834;-50
2022/10/30 02:46:08;;;;;;;0.10;0.10;;;;;;;;;;1880595;74;27680;-48
2022/10/30 02:48:36;;;;;;;0.17;0.17;;;;;;;;;;1878822;74;26358;-55
2022/10/30 02:51:04;;;;;;;0.20;0.20;;;;;;;;;;1887976;74;26381;-47
2022/10/30 02:53:32;;;;;;;0.10;0.10;;;;;;;;;;1888854;74;26390;-47
2022/10/30 02:56:07;;;;;;;0.20;0.20;;;;;;;;;;1884888;74;26271;-47
2022/10/30 02:58:34;;;;;;;0.20;0.20;;;;;;;;;;1890039;74;26681;-47
2022/10/30 03:01:07;;;;;;;0.20;0.20;;;;;;;;;;1881646;74;26247;-49
2022/10/30 03:03:34;;;;;;;0.17;0.17;;;;;;;;;;1876835;74;26284;-48
2022/10/30 03:06:03;;;;;;;0.20;0.20;;;;;;;;;;1878712;74;26361;-51
2022/10/30 03:08:30;;;;;;;0.10;0.10;;;;;;;;;;1896813;74;26291;-48
2022/10/30 03:11:05;;;;;;;0.10;0.10;;;;;;;;;;1892366;74;26322;-49
2022/10/30 03:13:33;;;;;;;0.10;0.10;;;;;;;;;;1869688;74;26842;-53
2022/10/30 03:16:05;;;;;;;0.30;0.30;;;;;;;;;;1887307;74;26252;-54
2022/10/30 03:18:32;;;;;;;0.42;0.30;;;;;;;;;;1889495;74;26239;-57
2022/10/30 03:21:01;;;;;;;0.13;0.13;;;;;;;;;;1878603;74;26295;-54
2022/10/30 03:23:28;;;;;;;0.10;0.10;;;;;;;;;;1865739;75;26937;-49
2022/10/30 03:25:57;;;;;;;0.30;0.30;;;;;;;;;;1872040;75;26362;-46
2022/10/30 03:28:25;;;;;;;0.20;0.20;;;;;;;;;;1871545;75;26690;-48
2022/10/30 03:30:54;;;;;;;0.30;0.30;;;;;;;;;;1871935;75;26253;-50
2022/10/30 03:33:21;;;;;;;0.10;0.10;;;;;;;;;;1880002;75;26354;-52
2022/10/30 03:35:49;;;;;;;0.10;0.10;;;;;;;;;;1871309;75;26284;-49
2022/10/30 03:38:16;;;;;;;0.20;0.20;;;;;;;;;;1868795;75;26729;-46
2022/10/30 03:40:43;;;;;;;0.15;0.15;;;;;;;;;;1869576;75;25543;-49
2022/10/30 03:43:10;;;;;;;0.20;0.20;;;;;;;;;;1874073;75;26248;-51
2022/10/30 03:45:38;;;;;;;0.10;0.10;;;;;;;;;;1879163;75;26777;-51
2022/10/30 03:48:06;;;;;;;0.10;0.10;;;;;;;;;;1874130;75;26360;-46
2022/10/30 03:50:33;;;;;;;1.17;0.20;;;;;;;;;;1882304;75;26269;-48
2022/10/30 03:53:02;;;;;;;0.13;0.13;;;;;;;;;;1873683;75;26253;-52
2022/10/30 03:55:29;;;;;;;0.10;0.10;;;;;;;;;;1877177;75;26304;-52
2022/10/30 03:57:56;;;;;;;0.00;0.00;;;;;;;;;;1874910;75;26517;-55
2022/10/30 04:00:24;;;;;;;0.10;0.10;;;;;;;;;;1876372;75;26318;-51
2022/10/30 04:02:51;;;;;;;0.10;0.10;;;;;;;;;;1866546;75;26178;-47
2022/10/30 04:05:20;;;;;;;0.20;0.20;;;;;;;;;;1871222;75;26706;-51
2022/10/30 04:07:48;;;;;;;0.13;0.13;;;;;;;;;;1869549;75;27581;-51
2022/10/30 04:10:15;;;;;;;0.20;0.20;;;;;;;;;;1868267;75;26318;-48
2022/10/30 04:12:42;;;;;;;0.03;0.03;;;;;;;;;;1866368;75;26256;-51
2022/10/30 04:15:09;;;;;;;0.20;0.20;;;;;;;;;;1867357;75;26299;-49
2022/10/30 04:17:37;;;;;;;0.20;0.20;;;;;;;;;;1878232;75;27372;-53
2022/10/30 04:20:04;;;;;;;0.10;0.10;;;;;;;;;;1878252;75;27392;-48
2022/10/30 04:22:32;;;;;;;0.20;0.20;;;;;;;;;;1871093;75;26360;-51
2022/10/30 04:24:59;;;;;;;0.10;0.10;;;;;;;;;;1864585;75;26256;-51
2022/10/30 04:27:27;;;;;;;0.20;0.20;;;;;;;;;;1867991;75;26304;-55
2022/10/30 04:29:54;;;;;;;0.10;0.10;;;;;;;;;;1875667;75;26259;-50
2022/10/30 04:32:21;;;;;;;0.20;0.20;;;;;;;;;;1879401;75;26220;-49
2022/10/30 04:34:52;;;;;;;0.30;0.30;;;;;;;;;;1871697;75;26337;-50
2022/10/30 04:37:18;;;;;;;0.10;0.10;;;;;;;;;;1873696;75;26225;-52
2022/10/30 04:39:47;;;;;;;0.15;0.15;;;;;;;;;;1875478;75;25691;-52
2022/10/30 04:42:14;;;;;;;0.20;0.20;;;;;;;;;;1871438;75;26371;-49
2022/10/30 04:44:41;;;;;;;0.23;0.23;;;;;;;;;;1879455;75;26256;-47
2022/10/30 04:47:09;;;;;;;0.13;0.13;;;;;;;;;;1864155;75;26320;-52
2022/10/30 04:49:36;;;;;;;0.20;0.20;;;;;;;;;;1878476;75;26783;-48
2022/10/30 04:52:03;;;;;;;0.10;0.10;;;;;;;;;;1867959;75;26554;-53
2022/10/30 04:54:30;;;;;;;0.10;0.10;;;;;;;;;;1877339;75;26237;-46
2022/10/30 04:56:58;;;;;;;0.10;0.10;;;;;;;;;;1861725;75;26386;-48
2022/10/30 04:59:25;;;;;;;0.20;0.20;;;;;;;;;;1875204;75;26218;-47
2022/10/30 05:01:52;;;;;;;0.10;0.10;;;;;;;;;;1875087;75;26330;-50
2022/10/30 05:04:20;;;;;;;0.20;0.20;;;;;;;;;;1874424;75;26245;-50
2022/10/30 05:06:47;;;;;;;0.20;0.20;;;;;;;;;;1877652;75;26226;-52
2022/10/30 05:09:15;;;;;;;0.13;0.13;;;;;;;;;;1869413;75;26291;-49
2022/10/30 05:11:42;;;;;;;0.20;0.20;;;;;;;;;;1861858;75;26194;-48
2022/10/30 05:14:09;;;;;;;0.20;0.20;;;;;;;;;;1856605;75;26702;-56
2022/10/30 05:16:37;;;;;;;0.10;0.10;;;;;;;;;;1870486;75;26264;-50
2022/10/30 05:19:04;;;;;;;0.30;0.30;;;;;;;;;;1866028;75;26583;-51
2022/10/30 05:21:31;;;;;;;0.15;0.15;;;;;;;;;;1866686;75;26318;-50
2022/10/30 05:23:58;;;;;;;0.10;0.10;;;;;;;;;;1872171;75;26295;-52
2022/10/30 05:26:26;;;;;;;0.13;0.13;;;;;;;;;;1875736;75;26238;-50
2022/10/30 05:28:53;;;;;;;0.30;0.30;;;;;;;;;;1866330;75;26683;-47
2022/10/30 05:31:20;;;;;;;0.20;0.20;;;;;;;;;;1869349;75;26370;-48
2022/10/30 05:33:48;;;;;;;0.17;0.17;;;;;;;;;;1866963;75;26253;-51
2022/10/30 05:36:15;;;;;;;0.20;0.20;;;;;;;;;;1874653;75;26233;-46
2022/10/30 05:38:42;;;;;;;0.20;0.20;;;;;;;;;;1871291;75;26303;-48
2022/10/30 05:41:09;;;;;;;0.10;0.10;;;;;;;;;;1875335;75;26382;-49
2022/10/30 05:43:37;;;;;;;0.10;0.10;;;;;;;;;;1867159;75;26248;-53
2022/10/30 05:46:04;;;;;;;0.20;0.20;;;;;;;;;;1867136;75;26241;-49
2022/10/30 05:48:31;;;;;;;0.20;0.20;;;;;;;;;;1865169;75;26790;-47
2022/10/30 05:50:59;;;;;;;0.20;0.20;;;;;;;;;;1880937;75;26721;-51
2022/10/30 05:53:26;;;;;;;0.20;0.20;;;;;;;;;;1877479;75;26320;-50
2022/10/30 05:55:57;;;;;;;0.23;0.23;;;;;;;;;;1873063;75;26228;-56
2022/10/30 05:58:24;;;;;;;0.20;0.20;;;;;;;;;;1874704;75;26237;-52
2022/10/30 06:00:52;;;;;;;0.13;0.13;;;;;;;;;;1869186;75;26240;-47
2022/10/30 06:03:19;;;;;;;0.10;0.10;;;;;;;;;;1875542;75;26844;-50
2022/10/30 06:05:47;;;;;;;0.30;0.30;;;;;;;;;;1873629;75;26182;-52
2022/10/30 06:08:15;;;;;;;0.10;0.10;;;;;;;;;;1858829;75;26325;-55
2022/10/30 06:10:42;;;;;;;0.20;0.20;;;;;;;;;;1873795;75;26276;-52
2022/10/30 06:13:10;;;;;;;0.17;0.17;;;;;;;;;;1861976;75;26422;-52
2022/10/30 06:15:37;;;;;;;0.10;0.10;;;;;;;;;;1858741;75;26326;-48
2022/10/30 06:18:05;;;;;;;0.10;0.10;;;;;;;;;;1872436;75;26232;-55
2022/10/30 06:20:32;;;;;;;0.10;0.10;;;;;;;;;;1861250;75;26243;-48
2022/10/30 06:23:01;;;;;;;0.20;0.20;;;;;;;;;;1873353;75;27665;-48
2022/10/30 06:25:30;;;;;;;0.13;0.13;;;;;;;;;;1873444;75;26181;-57
2022/10/30 06:27:57;;;;;;;0.20;0.20;;;;;;;;;;1868385;75;25843;-46
2022/10/30 06:30:25;;;;;;;0.10;0.10;;;;;;;;;;1873059;75;26251;-57
2022/10/30 06:32:56;;;;;;;0.10;0.10;;;;;;;;;;1866058;75;26922;-50
2022/10/30 06:35:24;;;;;;;0.17;0.17;;;;;;;;;;1875029;75;26305;-47
2022/10/30 06:37:53;;;;;;;0.10;0.10;;;;;;;;;;1870778;75;25274;-48
2022/10/30 06:40:20;;;;;;;0.10;0.10;;;;;;;;;;1879531;75;26303;-53
2022/10/30 06:42:49;;;;;;;0.20;0.20;;;;;;;;;;1872714;75;26291;-54
2022/10/30 06:45:17;;;;;;;0.20;0.20;;;;;;;;;;1858862;75;26309;-54
2022/10/30 06:47:45;;;;;;;0.20;0.20;;;;;;;;;;1875230;75;27030;-53
2022/10/30 06:50:14;;;;;;;0.20;0.20;;;;;;;;;;1874399;75;26310;-54
2022/10/30 06:52:41;;;;;;;0.20;0.20;;;;;;;;;;1875958;75;25606;-52
2022/10/30 06:55:09;;;;;;;0.20;0.20;;;;;;;;;;1869808;75;26275;-55
2022/10/30 06:57:37;;;;;;;0.20;0.20;;;;;;;;;;1875127;75;27348;-54
2022/10/30 07:00:05;;;;;;;0.10;0.10;;;;;;;;;;1872478;75;26241;-54
2022/10/30 07:02:32;;;;;;;0.10;0.10;;;;;;;;;;1866815;75;26303;-50
2022/10/30 07:04:59;;;;;;;0.20;0.20;;;;;;;;;;1864049;75;26255;-57
2022/10/30 07:07:27;;;;;;;0.10;0.10;;;;;;;;;;1864099;75;26307;-52
2022/10/30 07:09:54;;;;;;;0.30;0.30;;;;;;;;;;1878247;75;26233;-53
2022/10/30 07:12:21;;;;;;;0.20;0.20;;;;;;;;;;1870941;75;26322;-53
2022/10/30 07:14:48;;;;;;;0.20;0.20;;;;;;;;;;1863579;75;26307;-54
2022/10/30 07:17:17;;;;;;;0.20;0.20;;;;;;;;;;1867873;75;26592;-55
2022/10/30 07:19:44;;;;;;;0.20;0.20;;;;;;;;;;1863968;75;26260;-57
2022/10/30 07:22:12;;;;;;;0.25;0.25;;;;;;;;;;1876613;75;26306;-52
2022/10/30 07:24:39;;;;;;;0.23;0.23;;;;;;;;;;1874785;74;26308;-53
2022/10/30 07:27:06;;;;;;;0.10;0.10;;;;;;;;;;1876899;74;26237;-51
2022/10/30 07:29:33;;;;;;;0.30;0.30;;;;;;;;;;1872432;75;26261;-55
2022/10/30 07:32:01;;;;;;;0.17;0.17;;;;;;;;;;1865437;75;26317;-54
2022/10/30 07:34:28;;;;;;;0.20;0.20;;;;;;;;;;1878195;75;26280;-54
2022/10/30 07:36:55;;;;;;;0.23;0.23;;;;;;;;;;1869487;75;26317;-56
2022/10/30 07:39:24;;;;;;;0.20;0.20;;;;;;;;;;1877260;75;26820;-56
2022/10/30 07:41:51;;;;;;;0.20;0.20;;;;;;;;;;1868456;75;26745;-55
2022/10/30 07:44:19;;;;;;;0.13;0.13;;;;;;;;;;1877433;75;27071;-57
2022/10/30 07:46:46;;;;;;;0.20;0.20;;;;;;;;;;1871627;75;26503;-52
2022/10/30 07:49:15;;;;;;;0.10;0.10;;;;;;;;;;1866890;75;26248;-51
2022/10/30 07:51:42;;;;;;;0.20;0.20;;;;;;;;;;1876054;74;26312;-56
2022/10/30 07:54:09;;;;;;;0.17;0.17;;;;;;;;;;1873491;75;26335;-53
2022/10/30 07:56:36;;;;;;;0.20;0.20;;;;;;;;;;1865410;75;26237;-56
2022/10/30 07:59:04;;;;;;;0.20;0.20;;;;;;;;;;1862110;75;26365;-54
2022/10/30 08:01:32;;;;;;;0.10;0.10;;;;;;;;;;1872001;75;26924;-54
2022/10/30 08:03:59;;;;;;;0.13;0.13;;;;;;;;;;1870854;75;26682;-56
2022/10/30 08:06:26;;;;;;;0.15;0.15;;;;;;;;;;1871790;74;26735;-54
2022/10/30 08:08:53;;;;;;;0.10;0.10;;;;;;;;;;1873768;75;26233;-55
2022/10/30 08:11:21;;;;;;;0.20;0.20;;;;;;;;;;1864700;74;26244;-53
2022/10/30 08:13:48;;;;;;;0.10;0.10;;;;;;;;;;1874896;75;26289;-57
2022/10/30 08:16:17;;;;;;;0.20;0.20;;;;;;;;;;1873876;75;26242;-54
2022/10/30 08:18:44;;;;;;;0.20;0.20;;;;;;;;;;1871612;75;26915;-54
2022/10/30 08:21:12;;;;;;;0.20;0.20;;;;;;;;;;1864591;75;26279;-54
2022/10/30 08:23:39;;;;;;;0.20;0.20;;;;;;;;;;1874442;75;25346;-54
2022/10/30 08:26:06;;;;;;;0.20;0.20;;;;;;;;;;1895871;74;26241;-56
2022/10/30 08:28:33;;;;;;;0.20;0.20;;;;;;;;;;1890594;74;26308;-56
2022/10/30 08:31:01;;;;;;;0.20;0.20;;;;;;;;;;1887021;74;26803;-55
2022/10/30 08:33:29;;;;;;;0.20;0.20;;;;;;;;;;1885583;74;26260;-56
2022/10/30 08:35:57;;;;;;;0.37;0.20;;;;;;;;;;1889461;74;26305;-55
2022/10/30 08:38:24;;;;;;;0.13;0.13;;;;;;;;;;1892411;74;26269;-58
2022/10/30 08:40:52;;;;;;;0.17;0.17;;;;;;;;;;1880987;74;26248;-55
2022/10/30 08:43:19;;;;;;;0.17;0.17;;;;;;;;;;1885037;74;26240;-55
2022/10/30 08:45:47;;;;;;;0.10;0.10;;;;;;;;;;1881574;74;26252;-56
2022/10/30 08:48:15;;;;;;;0.20;0.20;;;;;;;;;;1887363;74;26245;-58
2022/10/30 08:50:42;;;;;;;0.10;0.10;;;;;;;;;;1882237;74;26886;-57
2022/10/30 08:53:11;;;;;;;0.28;0.28;;;;;;;;;;1878758;74;26232;-56
2022/10/30 08:55:38;;;;;;;0.10;0.10;;;;;;;;;;1888855;74;26831;-56
2022/10/30 08:58:05;;;;;;;0.28;0.23;;;;;;;;;;1891528;74;26236;-55
2022/10/30 09:00:33;;;;;;;0.20;0.20;;;;;;;;;;1882710;74;26317;-57
2022/10/30 09:03:00;;;;;;;0.20;0.20;;;;;;;;;;1873441;74;27121;-57
2022/10/30 09:05:27;;;;;;;0.40;0.40;;;;;;;;;;1885870;74;26253;-56
2022/10/30 09:07:56;;;;;;;0.20;0.20;;;;;;;;;;1885715;74;26245;-54
2022/10/30 09:10:23;;;;;;;0.23;0.23;;;;;;;;;;1884646;74;25720;-53
2022/10/30 09:12:54;;;;;;;0.30;0.30;;;;;;;;;;1887085;74;25670;-53
2022/10/30 09:15:22;;;;;;;0.80;0.80;;;;;;;;;;1891695;74;26847;-52
2022/10/30 09:17:51;;;;;;;1.45;1.40;;;;;;;;;;1889806;74;26881;-53
2022/10/30 09:20:18;;;;;;;1.50;1.40;;;;;;;;;;1874832;74;27457;-55
2022/10/30 09:22:45;;;;;;;1.50;1.42;;;;;;;;;;1893587;74;26241;-51
2022/10/30 09:25:13;;;;;;;1.60;1.50;;;;;;;;;;1893790;74;26269;-56
2022/10/30 09:27:40;;;;;;;1.70;1.60;;;;;;;;;;1859211;75;26310;-52
2022/10/30 09:30:08;;;;;;;1.42;1.40;;;;;;;;;;1867967;75;26245;-49
2022/10/30 09:32:35;;;;;;;1.37;1.37;;;;;;;;;;1875563;75;26610;-55
2022/10/30 09:35:03;;;;;;;1.27;1.27;;;;;;;;;;1882231;74;25856;-51
2022/10/30 09:37:33;;;;;;;1.10;1.10;;;;;;;;;;1870291;75;26700;-56
2022/10/30 09:40:00;;;;;;;1.10;1.10;;;;;;;;;;1866016;75;26771;-52
2022/10/30 09:42:44;;;;;;;1.20;1.20;;;;;;;;;;1864515;75;27490;-53
2022/10/30 09:45:25;;;;;;;0.98;0.98;;;;;;;;;;1879891;75;26273;-54
2022/10/30 09:47:54;;;;;;;1.00;1.00;;;;;;;;;;1858354;74;26263;-54
2022/10/30 09:50:26;;;;;;;1.10;1.10;;;;;;;;;;1855503;75;26241;-58
2022/10/30 09:53:13;;;;;;;1.10;1.10;;;;;;;;;;1890270;75;26333;-54
2022/10/30 09:55:41;;;;;;;0.90;0.90;;;;;;;;;;1862807;75;26252;-55
2022/10/30 09:58:13;;;;;;;0.90;0.90;;;;;;;;;;1874520;75;26248;-51
2022/10/30 10:00:42;;;;;;;1.00;1.00;;;;;;;;;;1877854;75;26257;-51
2022/10/30 10:03:27;;;;;;;0.90;0.90;;;;;;;;;;1861397;75;26256;-51
2022/10/30 10:05:55;;;;;;;0.80;0.80;;;;;;;;;;1854839;75;26283;-53
2022/10/30 10:08:24;;;;;;;0.65;0.65;;;;;;;;;;1873279;75;26791;-54
2022/10/30 10:10:53;;;;;;;0.80;0.80;;;;;;;;;;1863810;75;26247;-51
2022/10/30 10:13:25;;;;;;;0.70;0.70;;;;;;;;;;1863867;75;25220;-52
2022/10/30 10:16:09;;;;;;;0.70;0.70;;;;;;;;;;1853013;74;26266;-55
2022/10/30 10:18:37;;;;;;;0.85;0.85;;;;;;;;;;1873475;75;26385;-49
2022/10/30 10:21:06;;;;;;;0.72;0.72;;;;;;;;;;1858848;75;26333;-54
2022/10/30 10:23:35;;;;;;;0.62;0.62;;;;;;;;;;1883999;74;26236;-52
2022/10/30 10:26:04;;;;;;;0.70;0.70;;;;;;;;;;1870485;75;26269;-50
2022/10/30 10:28:38;;;;;;;1.65;0.80;;;;;;;;;;1864454;75;26245;-49
2022/10/30 10:31:13;;;;;;;0.60;0.60;;;;;;;;;;1865611;75;27363;-51
2022/10/30 10:33:47;;;;;;;0.60;0.60;;;;;;;;;;1859788;75;26253;-52
2022/10/30 10:36:16;;;;;;;0.80;0.80;;;;;;;;;;1860858;75;26702;-50
2022/10/30 10:39:02;;;;;;;0.62;0.62;;;;;;;;;;1863834;75;26268;-48
2022/10/30 10:41:47;;;;;;;0.60;0.60;;;;;;;;;;1867184;75;26622;-51
2022/10/30 10:44:25;;;;;;;0.50;0.50;;;;;;;;;;1863481;75;26807;-56
2022/10/30 10:46:53;;;;;;;0.70;0.70;;;;;;;;;;1872532;75;26305;-54
2022/10/30 10:49:22;;;;;;;0.50;0.50;;;;;;;;;;1867527;75;26271;-56
2022/10/30 10:51:57;;;;;;;0.70;0.70;;;;;;;;;;1864856;75;26315;-49
2022/10/30 10:54:26;;;;;;;0.60;0.60;;;;;;;;;;1865542;75;26257;-50
2022/10/30 10:56:54;;;;;;;0.45;0.45;;;;;;;;;;1877818;75;26292;-51
2022/10/30 10:59:23;;;;;;;0.60;0.60;;;;;;;;;;1876135;75;26284;-55
2022/10/30 11:01:57;;;;;;;0.68;0.68;;;;;;;;;;1852802;75;26300;-53
2022/10/30 11:04:29;;;;;;;0.68;0.68;;;;;;;;;;1867558;75;26246;-53
2022/10/30 11:06:58;;;;;;;0.60;0.60;;;;;;;;;;1873397;75;26590;-51
2022/10/30 11:09:27;;;;;;;0.55;0.55;;;;;;;;;;1873892;75;26226;-53
2022/10/30 11:11:55;;;;;;;0.78;0.78;;;;;;;;;;1856229;75;26343;-53
2022/10/30 11:14:23;;;;;;;0.90;0.90;;;;;;;;;;1864045;75;26266;-51
2022/10/30 11:16:52;;;;;;;0.80;0.80;;;;;;;;;;1860386;75;26269;-49
2022/10/30 11:19:20;;;;;;;1.00;1.00;;;;;;;;;;1854861;75;26253;-53
2022/10/30 11:21:51;;;;;;;0.80;0.80;;;;;;;;;;1861677;75;26764;-54
2022/10/30 11:24:32;;;;;;;0.80;0.80;;;;;;;;;;1872145;75;26353;-57
2022/10/30 11:27:01;;;;;;;0.72;0.72;;;;;;;;;;1872767;75;26261;-48
2022/10/30 11:29:29;;;;;;;0.80;0.80;;;;;;;;;;1853579;75;26358;-56
2022/10/30 11:32:03;;;;;;;0.90;0.90;;;;;;;;;;1871971;75;26868;-53
2022/10/30 11:34:32;;;;;;;0.57;0.57;;;;;;;;;;1868517;75;26254;-51
2022/10/30 11:36:59;;;;;;;0.70;0.70;;;;;;;;;;1872481;75;26288;-51
2022/10/30 11:39:28;;;;;;;0.90;0.90;;;;;;;;;;1850661;75;26807;-49
2022/10/30 11:42:00;;;;;;;0.70;0.70;;;;;;;;;;1870159;75;27386;-54
2022/10/30 11:44:29;;;;;;;0.60;0.60;;;;;;;;;;1878260;75;26242;-49
2022/10/30 11:46:57;;;;;;;1.20;0.65;;;;;;;;;;1861244;74;26311;-53
2022/10/30 11:49:25;;;;;;;0.70;0.70;;;;;;;;;;1861961;75;26837;-50
2022/10/30 11:51:53;;;;;;;0.72;0.72;;;;;;;;;;1872634;75;26796;-52
2022/10/30 11:54:21;;;;;;;0.53;0.53;;;;;;;;;;1862412;75;26405;-55
2022/10/30 11:56:49;;;;;;;0.70;0.70;;;;;;;;;;1869940;75;25668;-51
2022/10/30 11:59:18;;;;;;;0.50;0.50;;;;;;;;;;1869015;75;26245;-55
2022/10/30 12:01:59;;;;;;;0.72;0.72;;;;;;;;;;1870517;75;26738;-51
2022/10/30 12:04:27;;;;;;;0.55;0.55;;;;;;;;;;1858921;75;26186;-54
2022/10/30 12:06:58;;;;;;;0.50;0.50;;;;;;;;;;1858639;75;26654;-51
2022/10/30 12:09:26;;;;;;;0.50;0.50;;;;;;;;;;1828872;75;26300;-54
2022/10/30 12:11:53;;;;;;;0.45;0.45;;;;;;;;;;1864496;75;26226;-53
2022/10/30 12:14:22;;;;;;;0.53;0.53;;;;;;;;;;1862175;75;26251;-52
2022/10/30 12:16:54;;;;;;;0.42;0.42;;;;;;;;;;1865398;75;25278;-53
2022/10/30 12:19:22;;;;;;;0.40;0.40;;;;;;;;;;1868383;75;26251;-56
2022/10/30 12:21:53;;;;;;;0.53;0.50;;;;;;;;;;1850524;75;26368;-55
2022/10/30 12:24:22;;;;;;;0.30;0.30;;;;;;;;;;1849745;75;26462;-50
2022/10/30 12:26:51;;;;;;;0.30;0.30;;;;;;;;;;1872597;74;26284;-51
2022/10/30 12:29:20;;;;;;;0.35;0.35;;;;;;;;;;1881202;74;26698;-55
2022/10/30 12:31:52;;;;;;;0.30;0.30;;;;;;;;;;1888917;74;26271;-55
2022/10/30 12:34:27;;;;;;;0.37;0.37;;;;;;;;;;1880417;74;26785;-51
2022/10/30 12:37:01;;;;;;;0.42;0.42;;;;;;;;;;1879843;74;26244;-51
2022/10/30 12:39:30;;;;;;;0.45;0.45;;;;;;;;;;1867046;74;26641;-51
2022/10/30 12:42:05;;;;;;;0.42;0.42;;;;;;;;;;1877638;74;26256;-53
2022/10/30 12:44:34;;;;;;;0.30;0.30;;;;;;;;;;1872470;74;26262;-53
2022/10/30 12:47:15;;;;;;;0.40;0.33;;;;;;;;;;1889306;74;26288;-55
2022/10/30 12:49:44;;;;;;;0.90;0.90;;;;;;;;;;1882085;74;26232;-53
2022/10/30 12:52:19;;;;;;;3.77;2.50;;;;;;;;;;1871431;74;26260;-54
2022/10/30 12:55:00;;;;;;;9.38;4.53;;;;;;;;;;1898742;74;26256;-53
2022/10/30 12:57:34;;;;;;;14.58;6.33;;;;;;;;;;1884242;74;26678;-55
2022/10/30 13:00:03;;;;;;;13.35;5.87;;;;;;;;;;1886103;74;26326;-52
2022/10/30 13:02:32;;;;;;;11.95;5.33;;;;;;;;;;1887969;74;26296;-55
2022/10/30 13:05:01;;;;;;;12.88;5.85;;;;;;;;;;1879175;74;26240;-54
2022/10/30 13:07:33;;;;;;;11.48;5.12;;;;;;;;;;1885930;74;26236;-51
2022/10/30 13:10:18;;;;;;;11.40;5.33;;;;;;;;;;1890496;74;26704;-53
2022/10/30 13:12:46;;;;;;;8.68;4.80;;;;;;;;;;1878296;74;26349;-55
2022/10/30 13:15:31;;;;;;;9.80;4.78;;;;;;;;;;1886264;74;26796;-52
2022/10/30 13:18:00;;;;;;;9.73;4.65;;;;;;;;;;1891510;74;25157;-51
2022/10/30 13:20:28;;;;;;;8.10;4.45;;;;;;;;;;1881046;74;25569;-57
2022/10/30 13:22:57;;;;;;;7.97;4.05;;;;;;;;;;1876467;74;26232;-52
2022/10/30 13:25:26;;;;;;;6.40;3.80;;;;;;;;;;1882709;74;26254;-53
2022/10/30 13:28:13;;;;;;;7.15;4.00;;;;;;;;;;1891320;74;26248;-50
2022/10/30 13:30:42;;;;;;;6.58;3.50;;;;;;;;;;1886717;74;26512;-56
2022/10/30 13:33:14;;;;;;;7.05;3.58;;;;;;;;;;1887400;74;25620;-54
2022/10/30 13:35:46;;;;;;;7.17;3.60;;;;;;;;;;1887232;74;26345;-52
2022/10/30 13:38:31;;;;;;;5.55;3.47;;;;;;;;;;1886156;74;26596;-51
2022/10/30 13:41:03;;;;;;;5.65;3.20;;;;;;;;;;1884349;74;26650;-54
2022/10/30 13:43:48;;;;;;;4.15;2.87;;;;;;;;;;1823686;74;26307;-51
2022/10/30 13:46:32;;;;;;;6.53;3.15;;;;;;;;;;1871786;74;26333;-55
2022/10/30 13:49:04;;;;;;;5.67;3.08;;;;;;;;;;1879563;74;26288;-52
2022/10/30 13:51:45;;;;;;;3.70;2.80;;;;;;;;;;1895638;74;26280;-52
2022/10/30 13:54:30;;;;;;;4.62;2.55;;;;;;;;;;1897610;74;26572;-55
2022/10/30 13:56:59;;;;;;;4.03;2.60;;;;;;;;;;1888878;74;26240;-53
2022/10/30 13:59:37;;;;;;;3.17;2.37;;;;;;;;;;1890113;74;26178;-54
2022/10/30 14:02:22;;;;;;;3.30;2.30;;;;;;;;;;1880206;74;26237;-58
2022/10/30 14:04:51;;;;;;;3.02;2.47;;;;;;;;;;1877724;74;26333;-51
2022/10/30 14:07:26;;;;;;;2.72;2.02;;;;;;;;;;1874331;74;26237;-52
2022/10/30 14:09:57;;;;;;;2.80;2.00;;;;;;;;;;1871428;74;26260;-48
2022/10/30 14:12:43;;;;;;;2.22;1.80;;;;;;;;;;1884028;74;26197;-51
2022/10/30 14:15:18;;;;;;;2.37;1.92;;;;;;;;;;1888502;74;25872;-53
2022/10/30 14:18:03;;;;;;;1.95;1.75;;;;;;;;;;1886770;74;25909;-53
2022/10/30 14:20:31;;;;;;;2.80;1.90;;;;;;;;;;1884106;74;26776;-56
2022/10/30 14:23:05;;;;;;;3.10;2.12;;;;;;;;;;1888840;74;26228;-53
2022/10/30 14:25:33;;;;;;;2.52;2.05;;;;;;;;;;1885046;74;26249;-51
2022/10/30 14:28:00;;;;;;;2.27;1.80;;;;;;;;;;1880145;74;26503;-54
2022/10/30 14:30:28;;;;;;;2.35;1.87;;;;;;;;;;1885510;74;26259;-52
2022/10/30 14:32:55;;;;;;;2.30;1.87;;;;;;;;;;1890401;74;26200;-55
2022/10/30 14:35:31;;;;;;;1.92;1.80;;;;;;;;;;1886159;74;26284;-55
2022/10/30 14:38:00;;;;;;;1.77;1.67;;;;;;;;;;1892290;74;26271;-52
2022/10/30 14:40:38;;;;;;;1.80;1.70;;;;;;;;;;1875641;74;26350;-55
2022/10/30 14:43:23;;;;;;;1.47;1.37;;;;;;;;;;1882622;74;26243;-55
2022/10/30 14:45:52;;;;;;;2.27;1.80;;;;;;;;;;1893137;74;26303;-49
2022/10/30 14:48:30;;;;;;;1.40;1.30;;;;;;;;;;1892301;74;25201;-50
2022/10/30 14:50:59;;;;;;;1.42;1.32;;;;;;;;;;1879647;74;26245;-53
2022/10/30 14:53:37;;;;;;;1.37;1.27;;;;;;;;;;1883640;74;26333;-52
2022/10/30 14:56:05;;;;;;;2.30;1.60;;;;;;;;;;1871113;74;26793;-50
2022/10/30 14:58:37;;;;;;;1.22;1.22;;;;;;;;;;1884985;74;26718;-51